createdAt,value
2023-03-26T00:01:54.971Z,10.90
2023-03-26T00:04:26.332Z,10.70
2023-03-26T00:06:58.696Z,10.60
2023-03-26T00:09:30.729Z,10.80
2023-03-26T00:12:01.448Z,10.60
2023-03-26T00:14:33.405Z,10.70
2023-03-26T00:17:05.064Z,10.50
2023-03-26T00:19:35.925Z,10.40
2023-03-26T00:22:08.309Z,10.40
2023-03-26T00:24:40.353Z,10.30
2023-03-26T00:27:11.153Z,10.40
2023-03-26T00:29:42.199Z,9.90
2023-03-26T00:32:13.209Z,10.00
2023-03-26T00:34:46.948Z,10.10
2023-03-26T00:37:19.316Z,10.10
2023-03-26T00:39:50.503Z,10.00
2023-03-26T00:42:21.424Z,10.10
2023-03-26T00:44:55.764Z,10.30
2023-03-26T00:47:26.678Z,10.40
2023-03-26T00:49:58.370Z,10.50
2023-03-26T00:52:30.951Z,10.50
2023-03-26T00:55:01.697Z,10.50
2023-03-26T00:57:35.756Z,10.20
2023-03-26T01:00:18.591Z,10.30
2023-03-26T01:02:49.811Z,10.10
2023-03-26T01:05:49.627Z,9.90
2023-03-26T01:08:27.617Z,9.90
2023-03-26T01:11:05.893Z,9.70
2023-03-26T01:13:39.450Z,9.60
2023-03-26T01:16:21.236Z,9.40
2023-03-26T01:18:53.551Z,9.30
2023-03-26T01:21:29.306Z,9.20
2023-03-26T01:24:06.284Z,9.10
2023-03-26T01:26:56.750Z,9.20
2023-03-26T01:29:36.680Z,9.30
2023-03-26T01:32:17.913Z,9.30
2023-03-26T01:35:01.242Z,9.30
2023-03-26T01:37:39.789Z,9.10
2023-03-26T01:40:21.303Z,9.10
2023-03-26T01:42:58.885Z,9.00
2023-03-26T01:45:35.391Z,8.80
2023-03-26T01:48:06.717Z,8.70
2023-03-26T01:50:37.769Z,8.60
2023-03-26T01:53:10.278Z,8.50
2023-03-26T01:55:56.933Z,8.30
2023-03-26T01:58:37.342Z,8.30
2023-03-26T02:01:20.980Z,8.10
2023-03-26T02:03:57.953Z,8.10
2023-03-26T02:06:35.167Z,7.90
2023-03-26T02:09:09.766Z,7.80
2023-03-26T02:11:44.622Z,7.80
2023-03-26T02:14:17.935Z,7.70
2023-03-26T02:16:49.521Z,7.60
2023-03-26T02:19:22.774Z,7.50
2023-03-26T02:21:54.908Z,7.40
2023-03-26T02:24:25.598Z,7.40
2023-03-26T02:27:03.277Z,7.30
2023-03-26T02:29:38.492Z,7.10
2023-03-26T02:32:14.510Z,7.00
2023-03-26T02:34:46.327Z,6.90
2023-03-26T02:37:20.612Z,6.80
2023-03-26T02:39:51.766Z,6.70
2023-03-26T02:42:24.813Z,6.50
2023-03-26T02:44:56.288Z,6.40
2023-03-26T02:47:27.480Z,6.40
2023-03-26T02:49:59.224Z,6.30
2023-03-26T02:52:30.702Z,6.20
2023-03-26T02:55:02.077Z,6.20
2023-03-26T02:57:35.139Z,6.10
2023-03-26T03:00:14.874Z,6.10
2023-03-26T03:02:48.884Z,6.00
2023-03-26T03:05:21.039Z,6.00
2023-03-26T03:07:52.407Z,6.00
2023-03-26T03:10:23.845Z,5.90
2023-03-26T03:12:57.172Z,5.80
2023-03-26T03:15:28.131Z,5.90
2023-03-26T03:17:58.881Z,5.90
2023-03-26T03:20:31.272Z,5.90
2023-03-26T03:23:02.432Z,5.80
2023-03-26T03:25:33.654Z,5.80
2023-03-26T03:28:07.571Z,5.80
2023-03-26T03:30:39.227Z,5.80
2023-03-26T03:33:10.409Z,5.70
2023-03-26T03:35:43.836Z,5.70
2023-03-26T03:38:15.571Z,5.70
2023-03-26T03:40:48.028Z,5.70
2023-03-26T03:43:21.876Z,5.60
2023-03-26T03:45:53.691Z,5.60
2023-03-26T03:48:25.357Z,5.60
2023-03-26T03:50:56.615Z,5.60
2023-03-26T03:53:28.618Z,5.50
2023-03-26T03:56:03.449Z,5.50
2023-03-26T03:58:36.299Z,5.50
2023-03-26T04:01:07.673Z,5.50
2023-03-26T04:03:40.309Z,5.40
2023-03-26T04:06:12.102Z,5.40
2023-03-26T04:08:43.472Z,5.40
2023-03-26T04:11:17.543Z,5.40
2023-03-26T04:13:51.657Z,5.20
2023-03-26T04:16:22.867Z,5.10
2023-03-26T04:18:54.424Z,5.10
2023-03-26T04:21:26.554Z,5.10
2023-03-26T04:23:57.317Z,5.10
2023-03-26T04:26:31.861Z,5.00
2023-03-26T04:29:08.049Z,4.90
2023-03-26T04:31:39.116Z,4.80
2023-03-26T04:34:15.116Z,4.80
2023-03-26T04:36:47.388Z,4.80
2023-03-26T04:39:18.913Z,4.70
2023-03-26T04:41:49.636Z,4.80
2023-03-26T04:44:23.863Z,4.80
2023-03-26T04:46:56.255Z,4.80
2023-03-26T04:49:27.706Z,4.80
2023-03-26T04:51:59.402Z,4.80
2023-03-26T04:54:30.752Z,4.90
2023-03-26T04:57:05.987Z,4.90
2023-03-26T04:59:40.132Z,4.90
2023-03-26T05:02:12.152Z,4.90
2023-03-26T05:04:45.268Z,4.90
2023-03-26T05:07:21.934Z,4.90
2023-03-26T05:09:53.335Z,4.90
2023-03-26T05:12:24.689Z,4.90
2023-03-26T05:14:57.435Z,4.90
2023-03-26T05:17:32.751Z,4.80
2023-03-26T05:20:04.952Z,4.80
2023-03-26T05:22:38.155Z,4.70
2023-03-26T05:25:10.651Z,4.70
2023-03-26T05:27:43.140Z,4.70
2023-03-26T05:30:19.601Z,4.70
2023-03-26T05:32:52.638Z,4.60
2023-03-26T05:35:24.606Z,4.60
2023-03-26T05:37:56.034Z,4.50
2023-03-26T05:40:27.184Z,4.50
2023-03-26T05:42:59.314Z,4.50
2023-03-26T05:45:33.483Z,4.40
2023-03-26T05:48:04.498Z,4.50
2023-03-26T05:50:37.123Z,4.40
2023-03-26T05:53:08.361Z,4.40
2023-03-26T05:55:41.646Z,4.40
2023-03-26T05:58:13.938Z,4.30
2023-03-26T06:00:49.887Z,4.30
2023-03-26T06:03:20.968Z,4.30
2023-03-26T06:05:52.166Z,4.30
2023-03-26T06:08:24.271Z,4.20
2023-03-26T06:11:01.284Z,4.20
2023-03-26T06:13:32.780Z,4.20
2023-03-26T06:16:06.446Z,4.10
2023-03-26T06:18:37.883Z,4.10
2023-03-26T06:21:11.225Z,4.10
2023-03-26T06:23:42.291Z,4.10
2023-03-26T06:26:14.154Z,4.10
2023-03-26T06:28:45.364Z,4.00
2023-03-26T06:31:20.266Z,4.00
2023-03-26T06:33:52.221Z,4.00
2023-03-26T06:36:23.249Z,3.90
2023-03-26T06:38:54.320Z,3.90
2023-03-26T06:41:26.285Z,3.90
2023-03-26T06:43:57.831Z,3.90
2023-03-26T06:46:31.615Z,3.80
2023-03-26T06:49:03.099Z,3.80
2023-03-26T06:51:34.532Z,3.70
2023-03-26T06:54:06.040Z,3.70
2023-03-26T06:56:38.404Z,3.70
2023-03-26T06:59:09.567Z,3.70
2023-03-26T07:01:45.883Z,3.60
2023-03-26T07:04:18.204Z,3.60
2023-03-26T07:06:49.572Z,3.60
2023-03-26T07:09:21.038Z,3.60
2023-03-26T07:11:52.783Z,3.60
2023-03-26T07:14:23.729Z,3.60
2023-03-26T07:16:57.505Z,3.60
2023-03-26T07:19:29.275Z,3.50
2023-03-26T07:22:01.996Z,3.60
2023-03-26T07:24:34.038Z,3.60
2023-03-26T07:27:10.755Z,3.50
2023-03-26T07:29:48.797Z,3.50
2023-03-26T07:32:27.562Z,3.50
2023-03-26T07:35:04.690Z,3.50
2023-03-26T07:37:43.662Z,3.50
2023-03-26T07:40:23.134Z,3.50
2023-03-26T07:43:04.140Z,3.40
2023-03-26T07:45:41.320Z,3.40
2023-03-26T07:48:19.748Z,3.40
2023-03-26T07:50:51.316Z,3.30
2023-03-26T07:53:24.135Z,3.30
2023-03-26T07:56:01.463Z,3.30
2023-03-26T07:58:52.659Z,3.40
2023-03-26T08:01:38.851Z,3.40
2023-03-26T08:04:34.255Z,3.40
2023-03-26T08:07:14.430Z,3.40
2023-03-26T08:09:57.765Z,3.40
2023-03-26T08:12:38.897Z,3.40
2023-03-26T08:15:18.448Z,3.30
2023-03-26T08:17:56.117Z,3.40
2023-03-26T08:20:44.952Z,3.30
2023-03-26T08:23:23.495Z,3.30
2023-03-26T08:26:04.337Z,3.30
2023-03-26T08:28:57.745Z,3.20
2023-03-26T08:31:36.452Z,3.20
2023-03-26T08:34:08.917Z,3.20
2023-03-26T08:36:42.053Z,3.10
2023-03-26T08:39:13.911Z,3.00
2023-03-26T08:42:18.145Z,2.90
2023-03-26T08:45:39.757Z,2.80
2023-03-26T08:48:38.653Z,2.80
2023-03-26T08:52:03.154Z,2.80
2023-03-26T08:55:05.247Z,2.70
2023-03-26T08:58:08.820Z,2.60
2023-03-26T09:01:24.582Z,2.50
2023-03-26T09:04:40.116Z,2.40
2023-03-26T09:07:51.772Z,2.30
2023-03-26T09:11:05.067Z,2.30
2023-03-26T09:14:06.826Z,2.30
2023-03-26T09:17:18.180Z,2.20
2023-03-26T09:20:32.148Z,2.30
2023-03-26T09:23:30.951Z,2.20
2023-03-26T09:26:21.278Z,2.20
2023-03-26T09:29:24.645Z,2.10
2023-03-26T09:32:37.609Z,2.10
2023-03-26T09:35:43.621Z,2.10
2023-03-26T09:38:35.932Z,2.10
2023-03-26T09:41:15.057Z,2.10
2023-03-26T09:44:24.306Z,2.00
2023-03-26T09:47:20.618Z,2.00
2023-03-26T09:49:58.412Z,2.00
2023-03-26T09:52:55.344Z,2.10
2023-03-26T09:55:54.202Z,2.20
2023-03-26T09:59:03.754Z,2.30
2023-03-26T10:01:43.643Z,2.30
2023-03-26T10:05:04.095Z,2.40
2023-03-26T10:08:05.236Z,2.40
2023-03-26T10:10:42.546Z,2.40
2023-03-26T10:13:26.575Z,2.50
2023-03-26T10:16:11.557Z,2.60
2023-03-26T10:18:59.214Z,2.60
2023-03-26T10:21:39.822Z,2.60
2023-03-26T10:24:26.579Z,2.70
2023-03-26T10:27:10.821Z,2.70
2023-03-26T10:30:10.458Z,2.60
2023-03-26T10:32:49.872Z,2.60
2023-03-26T10:35:29.560Z,2.60
2023-03-26T10:38:15.516Z,2.60
2023-03-26T10:40:57.802Z,2.70
2023-03-26T10:44:08.390Z,2.70
2023-03-26T10:47:09.202Z,2.70
2023-03-26T10:50:03.413Z,2.70
2023-03-26T10:52:42.161Z,2.70
2023-03-26T10:55:18.764Z,2.80
2023-03-26T10:57:54.938Z,2.80
2023-03-26T11:00:27.795Z,2.90
2023-03-26T11:03:19.575Z,3.00
2023-03-26T11:05:55.138Z,3.10
2023-03-26T11:08:34.927Z,3.20
2023-03-26T11:11:17.090Z,3.20
2023-03-26T11:13:57.033Z,3.30
2023-03-26T11:16:34.802Z,3.30
2023-03-26T11:19:16.108Z,3.40
2023-03-26T11:21:56.888Z,3.40
2023-03-26T11:24:51.680Z,3.40
2023-03-26T11:27:30.786Z,3.40
2023-03-26T11:30:13.958Z,3.50
2023-03-26T11:32:48.341Z,3.50
2023-03-26T11:35:40.748Z,3.50
2023-03-26T11:38:20.830Z,3.50
2023-03-26T11:40:56.360Z,3.50
2023-03-26T11:43:33.238Z,3.50
2023-03-26T11:46:07.116Z,3.50
2023-03-26T11:48:44.554Z,3.50
2023-03-26T11:51:24.011Z,3.50
2023-03-26T11:53:55.588Z,3.50
2023-03-26T11:56:32.693Z,3.50
2023-03-26T11:59:07.302Z,3.50
2023-03-26T12:01:53.440Z,3.50
2023-03-26T12:04:31.883Z,3.40
2023-03-26T12:07:17.012Z,3.40
2023-03-26T12:09:55.065Z,3.30
2023-03-26T12:12:30.127Z,3.30
2023-03-26T12:15:02.077Z,3.30
2023-03-26T12:17:37.050Z,3.30
2023-03-26T12:20:38.515Z,3.30
2023-03-26T12:23:39.711Z,3.30
2023-03-26T12:26:21.747Z,3.30
2023-03-26T12:28:55.748Z,3.30
2023-03-26T12:31:27.539Z,3.40
2023-03-26T12:34:16.600Z,3.30
2023-03-26T12:36:54.934Z,3.30
2023-03-26T12:40:09.700Z,3.40
2023-03-26T12:44:48.106Z,3.40
2023-03-26T12:45:26.019Z,3.40
2023-03-26T12:48:04.331Z,3.50
2023-03-26T12:50:58.725Z,3.50
2023-03-26T12:53:54.998Z,3.60
2023-03-26T12:56:37.833Z,3.50
2023-03-26T12:59:37.982Z,3.50
2023-03-26T13:02:30.376Z,3.60
2023-03-26T13:05:21.387Z,3.50
2023-03-26T13:08:07.966Z,3.50
2023-03-26T13:10:54.693Z,3.60
2023-03-26T13:14:15.979Z,3.70
2023-03-26T13:16:57.096Z,3.60
2023-03-26T13:19:35.294Z,3.60
2023-03-26T13:22:17.800Z,3.60
2023-03-26T13:24:57.308Z,3.60
2023-03-26T13:27:43.095Z,3.60
2023-03-26T13:30:24.970Z,3.60
2023-03-26T13:33:12.580Z,3.60
2023-03-26T13:35:50.231Z,3.50
2023-03-26T13:38:32.615Z,3.60
2023-03-26T13:41:10.416Z,3.60
2023-03-26T13:43:56.010Z,3.60
2023-03-26T13:46:35.078Z,3.60
2023-03-26T13:49:16.278Z,3.60
2023-03-26T13:51:52.562Z,3.60
2023-03-26T13:54:27.853Z,3.60
2023-03-26T13:57:03.882Z,3.60
2023-03-26T13:59:40.507Z,3.70
2023-03-26T14:02:17.652Z,3.70
2023-03-26T14:04:53.604Z,3.70
2023-03-26T14:07:28.768Z,3.70
2023-03-26T14:10:05.464Z,3.70
2023-03-26T14:12:52.302Z,3.70
2023-03-26T14:15:29.093Z,3.70
2023-03-26T14:18:12.424Z,3.80
2023-03-26T14:21:28.455Z,3.80
2023-03-26T14:24:40.318Z,3.80
2023-03-26T14:27:27.664Z,3.80
2023-03-26T14:30:13.832Z,3.80
2023-03-26T14:33:04.077Z,3.90
2023-03-26T14:35:41.829Z,3.90
2023-03-26T14:38:36.913Z,3.90
2023-03-26T14:41:22.818Z,3.90
2023-03-26T14:44:27.403Z,4.10
2023-03-26T14:47:26.253Z,4.10
2023-03-26T14:50:27.797Z,4.10
2023-03-26T14:53:01.454Z,4.10
2023-03-26T14:56:08.117Z,4.00
2023-03-26T14:59:17.278Z,4.00
2023-03-26T15:02:44.904Z,4.00
2023-03-26T15:05:48.788Z,4.10
2023-03-26T15:08:52.469Z,4.20
2023-03-26T15:11:38.237Z,4.30
2023-03-26T15:14:46.962Z,4.40
2023-03-26T15:17:47.857Z,4.60
2023-03-26T15:20:55.984Z,4.60
2023-03-26T15:24:08.174Z,4.70
2023-03-26T15:27:16.727Z,4.80
2023-03-26T15:30:34.937Z,4.60
2023-03-26T15:33:55.304Z,4.60
2023-03-26T15:37:06.649Z,4.70
2023-03-26T15:40:24.090Z,4.90
2023-03-26T15:43:06.398Z,5.00
2023-03-26T15:45:40.472Z,5.10
2023-03-26T15:48:46.053Z,5.20
2023-03-26T15:51:47.210Z,5.10
2023-03-26T15:54:32.675Z,5.10
2023-03-26T15:57:18.942Z,5.20
2023-03-26T16:00:02.866Z,5.30
2023-03-26T16:02:44.808Z,5.40
2023-03-26T16:05:38.621Z,5.40
2023-03-26T16:08:24.945Z,5.60
2023-03-26T16:10:58.678Z,5.30
2023-03-26T16:13:38.593Z,5.40
2023-03-26T16:16:25.567Z,5.40
2023-03-26T16:19:01.870Z,5.40
2023-03-26T16:21:57.446Z,5.20
2023-03-26T16:24:32.897Z,4.90
2023-03-26T16:27:11.365Z,4.80
2023-03-26T16:30:20.907Z,4.90
2023-03-26T16:32:59.617Z,5.00
2023-03-26T16:36:04.350Z,5.30
2023-03-26T16:38:51.899Z,5.20
2023-03-26T16:41:28.891Z,5.20
2023-03-26T16:44:14.457Z,5.40
2023-03-26T16:46:55.586Z,5.70
2023-03-26T16:49:37.923Z,5.90
2023-03-26T16:52:25.807Z,6.10
2023-03-26T16:55:07.423Z,6.00
2023-03-26T16:57:50.296Z,6.10
2023-03-26T17:00:48.809Z,6.40
2023-03-26T17:03:45.634Z,6.40
2023-03-26T17:06:47.554Z,6.50
2023-03-26T17:09:27.527Z,6.70
2023-03-26T17:12:05.771Z,6.80
2023-03-26T17:14:49.760Z,6.80
2023-03-26T17:17:43.042Z,6.80
2023-03-26T17:20:34.216Z,6.70
2023-03-26T17:23:27.501Z,6.90
2023-03-26T17:26:08.480Z,7.00
2023-03-26T17:28:53.679Z,7.00
2023-03-26T17:31:38.840Z,6.70
2023-03-26T17:34:47.361Z,7.00
2023-03-26T17:37:46.630Z,7.20
2023-03-26T17:51:52.692Z,7.70
2023-03-26T17:54:28.729Z,7.70
2023-03-26T17:57:06.011Z,7.70
2023-03-26T17:59:39.490Z,7.80
2023-03-26T18:02:19.392Z,7.80
2023-03-26T18:04:54.284Z,7.40
2023-03-26T18:08:16.664Z,7.30
2023-03-26T18:11:09.881Z,7.30
2023-03-26T18:14:06.812Z,7.30
2023-03-26T18:16:42.888Z,7.30
2023-03-26T18:19:20.754Z,7.60
2023-03-26T18:21:54.325Z,7.70
2023-03-26T18:24:31.596Z,7.90
2023-03-26T18:27:07.132Z,7.90
2023-03-26T18:29:39.872Z,7.70
2023-03-26T18:32:23.967Z,7.50
2023-03-26T18:35:00.693Z,7.30
2023-03-26T18:37:32.761Z,7.50
2023-03-26T18:40:13.125Z,7.80
2023-03-26T18:42:46.871Z,8.10
2023-03-26T18:45:28.141Z,8.20
2023-03-26T18:48:01.526Z,8.10
2023-03-26T18:50:38.100Z,8.30
2023-03-26T18:53:12.584Z,8.40
2023-03-26T18:55:46.825Z,8.50
2023-03-26T18:58:28.567Z,8.70
2023-03-26T19:01:01.992Z,8.50
2023-03-26T19:03:36.483Z,8.50
2023-03-26T19:06:11.949Z,8.50
2023-03-26T19:08:45.442Z,8.50
2023-03-26T19:11:21.563Z,8.10
2023-03-26T19:14:31.437Z,8.40
2023-03-26T19:17:07.180Z,8.50
2023-03-26T19:19:40.897Z,8.30
2023-03-26T19:22:15.064Z,8.30
2023-03-26T19:24:47.298Z,8.30
2023-03-26T19:27:21.013Z,8.30
2023-03-26T19:29:52.447Z,8.30
2023-03-26T19:32:33.186Z,8.30
2023-03-26T19:35:05.350Z,8.30
2023-03-26T19:37:36.933Z,7.90
2023-03-26T19:40:17.497Z,8.10
2023-03-26T19:42:52.117Z,8.10
2023-03-26T19:45:27.178Z,8.30
2023-03-26T19:48:13.921Z,8.50
2023-03-26T19:50:47.796Z,8.50
2023-03-26T19:53:25.798Z,8.50
2023-03-26T19:55:59.337Z,8.30
2023-03-26T19:58:33.307Z,8.10
2023-03-26T20:01:04.922Z,7.70
2023-03-26T20:03:42.629Z,7.70
2023-03-26T20:06:16.429Z,7.60
2023-03-26T20:08:47.730Z,7.60
2023-03-26T20:11:22.877Z,7.70
2023-03-26T20:13:55.657Z,8.10
2023-03-26T20:16:29.126Z,8.30
2023-03-26T20:19:03.175Z,8.50
2023-03-26T20:21:37.404Z,8.60
2023-03-26T20:24:16.016Z,8.70
2023-03-26T20:26:47.496Z,8.60
2023-03-26T20:29:20.967Z,8.60
2023-03-26T20:31:53.279Z,8.50
2023-03-26T20:34:26.493Z,8.60
2023-03-26T20:37:01.231Z,8.70
2023-03-26T20:39:33.105Z,8.80
2023-03-26T20:42:05.023Z,8.80
2023-03-26T20:44:38.205Z,8.70
2023-03-26T20:47:09.691Z,8.70
2023-03-26T20:49:41.054Z,8.90
2023-03-26T20:52:17.153Z,8.80
2023-03-26T20:54:49.077Z,8.80
2023-03-26T20:57:20.982Z,8.90
2023-03-26T20:59:55.759Z,9.00
2023-03-26T21:02:27.336Z,9.10
2023-03-26T21:04:58.419Z,9.00
2023-03-26T21:07:30.775Z,8.90
2023-03-26T21:10:04.071Z,8.70
2023-03-26T21:12:42.280Z,8.80
2023-03-26T21:15:23.536Z,8.90
2023-03-26T21:17:56.997Z,8.70
2023-03-26T21:20:30.941Z,8.80
2023-03-26T21:23:10.286Z,9.10
2023-03-26T21:25:48.561Z,9.40
2023-03-26T21:28:41.350Z,9.90
2023-03-26T21:31:21.139Z,10.10
2023-03-26T21:33:54.040Z,10.20
2023-03-26T21:36:26.486Z,10.20
2023-03-26T21:38:58.929Z,10.20
2023-03-26T21:41:37.498Z,10.10
2023-03-26T21:44:08.947Z,10.20
2023-03-26T21:46:45.678Z,10.20
2023-03-26T21:49:18.826Z,10.50
2023-03-26T21:51:50.975Z,10.90
2023-03-26T21:54:27.602Z,10.80
2023-03-26T21:57:37.160Z,10.60
2023-03-26T22:00:15.903Z,10.50
2023-03-26T22:03:01.346Z,10.30
2023-03-26T22:05:42.225Z,10.50
2023-03-26T22:08:22.880Z,10.80
2023-03-26T22:10:54.229Z,11.00
2023-03-26T22:13:27.213Z,11.10
2023-03-26T22:15:58.222Z,11.30
2023-03-26T22:18:32.486Z,11.40
2023-03-26T22:21:04.499Z,11.40
2023-03-26T22:23:37.691Z,11.70
2023-03-26T22:26:09.465Z,11.80
2023-03-26T22:28:40.877Z,11.50
2023-03-26T22:31:12.870Z,11.60
2023-03-26T22:33:46.683Z,11.80
2023-03-26T22:36:23.381Z,11.90
2023-03-26T22:38:57.680Z,12.10
2023-03-26T22:41:30.351Z,12.20
2023-03-26T22:44:16.973Z,12.40
2023-03-26T22:46:52.273Z,12.30
2023-03-26T22:49:28.363Z,12.00
2023-03-26T22:52:00.123Z,12.00
2023-03-26T22:54:31.166Z,11.50
2023-03-26T22:57:02.550Z,10.80
2023-03-26T22:59:33.636Z,10.20
2023-03-26T23:02:05.182Z,10.10
2023-03-26T23:04:38.877Z,10.40
2023-03-26T23:07:10.201Z,10.80
2023-03-26T23:09:40.933Z,10.90
2023-03-26T23:12:12.947Z,10.90
2023-03-26T23:14:44.368Z,11.30
2023-03-26T23:17:16.789Z,11.30
2023-03-26T23:19:50.408Z,11.20
2023-03-26T23:22:22.302Z,11.00
2023-03-26T23:24:54.357Z,11.30
2023-03-26T23:27:25.288Z,11.60
2023-03-26T23:29:56.677Z,12.00
2023-03-26T23:32:29.097Z,12.20
2023-03-26T23:35:02.171Z,12.20
2023-03-26T23:37:36.412Z,12.20
2023-03-26T23:40:11.073Z,12.20
2023-03-26T23:42:42.803Z,12.00
2023-03-26T23:45:14.644Z,12.20
2023-03-26T23:47:45.422Z,11.90
2023-03-26T23:50:17.780Z,11.60
2023-03-26T23:52:48.679Z,11.60
2023-03-26T23:55:20.416Z,11.80
2023-03-26T23:57:53.543Z,12.00
